sensor_id;sensor_type;location;lat;lon;timestamp;P1;durP1;ratioP1;P2;durP2;ratioP2
21941;SDS011;11135;54.192;15.670;2022-12-10T00:01:31;9.77;;;5.28;;
21941;SDS011;11135;54.192;15.670;2022-12-10T00:04:42;8.57;;;5.60;;
21941;SDS011;11135;54.192;15.670;2022-12-10T00:07:50;8.95;;;4.25;;
21941;SDS011;11135;54.192;15.670;2022-12-10T00:10:57;8.88;;;4.68;;
21941;SDS011;11135;54.192;15.670;2022-12-10T00:14:02;8.63;;;4.80;;
21941;SDS011;11135;54.192;15.670;2022-12-10T00:17:09;7.75;;;4.30;;
21941;SDS011;11135;54.192;15.670;2022-12-10T00:20:19;7.55;;;4.93;;
21941;SDS011;11135;54.192;15.670;2022-12-10T00:23:26;7.85;;;4.88;;
21941;SDS011;11135;54.192;15.670;2022-12-10T00:26:34;8.32;;;3.95;;
21941;SDS011;11135;54.192;15.670;2022-12-10T00:29:42;10.85;;;4.97;;
21941;SDS011;11135;54.192;15.670;2022-12-10T00:32:51;10.43;;;5.68;;
21941;SDS011;11135;54.192;15.670;2022-12-10T00:36:03;10.32;;;5.00;;
21941;SDS011;11135;54.192;15.670;2022-12-10T00:39:10;8.38;;;4.35;;
21941;SDS011;11135;54.192;15.670;2022-12-10T00:42:16;8.38;;;4.65;;
21941;SDS011;11135;54.192;15.670;2022-12-10T00:45:23;7.65;;;4.20;;
21941;SDS011;11135;54.192;15.670;2022-12-10T00:48:29;8.68;;;5.03;;
21941;SDS011;11135;54.192;15.670;2022-12-10T00:51:37;8.65;;;5.13;;
21941;SDS011;11135;54.192;15.670;2022-12-10T00:54:43;7.40;;;4.43;;
21941;SDS011;11135;54.192;15.670;2022-12-10T00:57:49;8.45;;;4.78;;
21941;SDS011;11135;54.192;15.670;2022-12-10T01:01:05;7.85;;;4.47;;
21941;SDS011;11135;54.192;15.670;2022-12-10T01:04:12;7.68;;;4.78;;
21941;SDS011;11135;54.192;15.670;2022-12-10T01:07:21;7.00;;;4.10;;
21941;SDS011;11135;54.192;15.670;2022-12-10T01:10:29;7.45;;;4.70;;
21941;SDS011;11135;54.192;15.670;2022-12-10T01:13:37;9.35;;;4.55;;
21941;SDS011;11135;54.192;15.670;2022-12-10T01:16:45;8.15;;;4.65;;
21941;SDS011;11135;54.192;15.670;2022-12-10T01:19:51;7.38;;;4.13;;
21941;SDS011;11135;54.192;15.670;2022-12-10T01:23:03;8.65;;;5.03;;
21941;SDS011;11135;54.192;15.670;2022-12-10T01:26:16;8.05;;;4.57;;
21941;SDS011;11135;54.192;15.670;2022-12-10T01:29:22;9.48;;;4.82;;
21941;SDS011;11135;54.192;15.670;2022-12-10T01:32:28;7.40;;;4.57;;
21941;SDS011;11135;54.192;15.670;2022-12-10T01:35:35;7.43;;;5.03;;
21941;SDS011;11135;54.192;15.670;2022-12-10T01:38:45;8.95;;;5.07;;
21941;SDS011;11135;54.192;15.670;2022-12-10T01:41:54;8.98;;;5.03;;
21941;SDS011;11135;54.192;15.670;2022-12-10T01:45:07;9.07;;;5.10;;
21941;SDS011;11135;54.192;15.670;2022-12-10T01:48:16;7.53;;;4.53;;
21941;SDS011;11135;54.192;15.670;2022-12-10T01:51:23;8.93;;;5.20;;
21941;SDS011;11135;54.192;15.670;2022-12-10T01:54:35;7.88;;;4.55;;
21941;SDS011;11135;54.192;15.670;2022-12-10T01:57:44;9.88;;;5.05;;
21941;SDS011;11135;54.192;15.670;2022-12-10T02:00:59;10.50;;;4.75;;
21941;SDS011;11135;54.192;15.670;2022-12-10T02:04:10;8.07;;;4.57;;
21941;SDS011;11135;54.192;15.670;2022-12-10T02:07:19;8.02;;;4.70;;
21941;SDS011;11135;54.192;15.670;2022-12-10T02:10:38;8.20;;;4.50;;
21941;SDS011;11135;54.192;15.670;2022-12-10T02:13:48;7.45;;;4.55;;
21941;SDS011;11135;54.192;15.670;2022-12-10T02:16:58;7.13;;;4.20;;
21941;SDS011;11135;54.192;15.670;2022-12-10T02:20:06;9.88;;;5.00;;
21941;SDS011;11135;54.192;15.670;2022-12-10T02:23:15;8.00;;;4.97;;
21941;SDS011;11135;54.192;15.670;2022-12-10T02:26:25;8.20;;;4.72;;
21941;SDS011;11135;54.192;15.670;2022-12-10T02:29:35;8.98;;;4.78;;
21941;SDS011;11135;54.192;15.670;2022-12-10T02:32:41;8.40;;;5.10;;
21941;SDS011;11135;54.192;15.670;2022-12-10T02:35:49;10.43;;;5.68;;
21941;SDS011;11135;54.192;15.670;2022-12-10T02:38:55;10.27;;;5.20;;
21941;SDS011;11135;54.192;15.670;2022-12-10T02:42:04;7.90;;;3.90;;
21941;SDS011;11135;54.192;15.670;2022-12-10T02:45:15;10.27;;;5.57;;
21941;SDS011;11135;54.192;15.670;2022-12-10T02:48:22;9.88;;;5.53;;
21941;SDS011;11135;54.192;15.670;2022-12-10T02:51:28;11.52;;;6.20;;
21941;SDS011;11135;54.192;15.670;2022-12-10T02:54:37;8.77;;;5.00;;
21941;SDS011;11135;54.192;15.670;2022-12-10T02:57:45;8.73;;;5.30;;
21941;SDS011;11135;54.192;15.670;2022-12-10T03:04:05;8.35;;;4.88;;
21941;SDS011;11135;54.192;15.670;2022-12-10T03:07:14;11.30;;;6.18;;
21941;SDS011;11135;54.192;15.670;2022-12-10T03:10:22;9.15;;;5.75;;
21941;SDS011;11135;54.192;15.670;2022-12-10T03:13:32;8.48;;;5.45;;
21941;SDS011;11135;54.192;15.670;2022-12-10T03:16:41;9.23;;;4.28;;
21941;SDS011;11135;54.192;15.670;2022-12-10T03:19:53;9.75;;;5.55;;
21941;SDS011;11135;54.192;15.670;2022-12-10T03:23:02;8.25;;;4.70;;
21941;SDS011;11135;54.192;15.670;2022-12-10T03:26:08;9.63;;;5.30;;
21941;SDS011;11135;54.192;15.670;2022-12-10T03:29:24;8.50;;;5.22;;
21941;SDS011;11135;54.192;15.670;2022-12-10T03:32:32;9.18;;;4.97;;
21941;SDS011;11135;54.192;15.670;2022-12-10T03:35:41;8.27;;;4.60;;
21941;SDS011;11135;54.192;15.670;2022-12-10T03:38:47;9.48;;;5.03;;
21941;SDS011;11135;54.192;15.670;2022-12-10T03:41:52;9.02;;;4.72;;
21941;SDS011;11135;54.192;15.670;2022-12-10T03:45:03;8.70;;;5.03;;
21941;SDS011;11135;54.192;15.670;2022-12-10T03:48:10;8.27;;;4.78;;
21941;SDS011;11135;54.192;15.670;2022-12-10T03:51:20;8.77;;;4.93;;
21941;SDS011;11135;54.192;15.670;2022-12-10T03:54:31;12.40;;;7.28;;
21941;SDS011;11135;54.192;15.670;2022-12-10T03:57:37;11.60;;;6.05;;
21941;SDS011;11135;54.192;15.670;2022-12-10T04:00:42;11.70;;;6.32;;
21941;SDS011;11135;54.192;15.670;2022-12-10T04:03:52;11.38;;;6.40;;
21941;SDS011;11135;54.192;15.670;2022-12-10T04:07:00;9.57;;;5.30;;
21941;SDS011;11135;54.192;15.670;2022-12-10T04:10:07;9.10;;;5.40;;
21941;SDS011;11135;54.192;15.670;2022-12-10T04:13:14;11.18;;;5.72;;
21941;SDS011;11135;54.192;15.670;2022-12-10T04:16:35;10.65;;;5.85;;
21941;SDS011;11135;54.192;15.670;2022-12-10T04:19:41;9.63;;;5.03;;
21941;SDS011;11135;54.192;15.670;2022-12-10T04:22:50;11.73;;;6.60;;
21941;SDS011;11135;54.192;15.670;2022-12-10T04:26:08;10.07;;;5.78;;
21941;SDS011;11135;54.192;15.670;2022-12-10T04:29:26;11.65;;;6.72;;
21941;SDS011;11135;54.192;15.670;2022-12-10T04:32:32;12.45;;;6.97;;
21941;SDS011;11135;54.192;15.670;2022-12-10T04:35:42;12.98;;;6.85;;
21941;SDS011;11135;54.192;15.670;2022-12-10T04:38:50;10.48;;;5.90;;
21941;SDS011;11135;54.192;15.670;2022-12-10T04:41:57;12.02;;;6.28;;
21941;SDS011;11135;54.192;15.670;2022-12-10T04:45:02;10.45;;;5.65;;
21941;SDS011;11135;54.192;15.670;2022-12-10T04:48:08;11.95;;;6.47;;
21941;SDS011;11135;54.192;15.670;2022-12-10T04:51:13;12.85;;;7.10;;
21941;SDS011;11135;54.192;15.670;2022-12-10T04:54:24;12.43;;;6.88;;
21941;SDS011;11135;54.192;15.670;2022-12-10T04:57:39;13.27;;;6.90;;
21941;SDS011;11135;54.192;15.670;2022-12-10T05:00:45;14.43;;;6.93;;
21941;SDS011;11135;54.192;15.670;2022-12-10T05:03:54;12.75;;;6.70;;
21941;SDS011;11135;54.192;15.670;2022-12-10T05:07:07;11.80;;;6.72;;
21941;SDS011;11135;54.192;15.670;2022-12-10T05:10:17;13.15;;;6.70;;
21941;SDS011;11135;54.192;15.670;2022-12-10T05:13:23;11.90;;;6.05;;
21941;SDS011;11135;54.192;15.670;2022-12-10T05:16:32;12.38;;;6.65;;
21941;SDS011;11135;54.192;15.670;2022-12-10T05:19:41;12.73;;;6.22;;
21941;SDS011;11135;54.192;15.670;2022-12-10T05:22:48;11.48;;;5.10;;
21941;SDS011;11135;54.192;15.670;2022-12-10T05:26:10;11.02;;;6.50;;
21941;SDS011;11135;54.192;15.670;2022-12-10T05:29:16;12.93;;;7.15;;
21941;SDS011;11135;54.192;15.670;2022-12-10T05:32:25;12.50;;;7.05;;
21941;SDS011;11135;54.192;15.670;2022-12-10T05:35:34;11.48;;;7.32;;
21941;SDS011;11135;54.192;15.670;2022-12-10T05:38:41;13.35;;;7.60;;
21941;SDS011;11135;54.192;15.670;2022-12-10T05:41:50;12.30;;;6.68;;
21941;SDS011;11135;54.192;15.670;2022-12-10T05:44:57;16.58;;;7.63;;
21941;SDS011;11135;54.192;15.670;2022-12-10T05:48:03;13.43;;;7.35;;
21941;SDS011;11135;54.192;15.670;2022-12-10T05:51:12;12.77;;;7.18;;
21941;SDS011;11135;54.192;15.670;2022-12-10T05:54:18;12.75;;;6.78;;
21941;SDS011;11135;54.192;15.670;2022-12-10T05:57:27;14.73;;;8.15;;
21941;SDS011;11135;54.192;15.670;2022-12-10T06:00:33;13.57;;;7.88;;
21941;SDS011;11135;54.192;15.670;2022-12-10T06:03:38;14.05;;;7.28;;
21941;SDS011;11135;54.192;15.670;2022-12-10T06:06:49;15.13;;;8.93;;
21941;SDS011;11135;54.192;15.670;2022-12-10T06:09:56;15.25;;;8.02;;
21941;SDS011;11135;54.192;15.670;2022-12-10T06:13:06;13.07;;;7.53;;
21941;SDS011;11135;54.192;15.670;2022-12-10T06:16:13;13.93;;;8.45;;
21941;SDS011;11135;54.192;15.670;2022-12-10T06:19:19;15.20;;;8.32;;
21941;SDS011;11135;54.192;15.670;2022-12-10T06:22:27;13.98;;;8.25;;
21941;SDS011;11135;54.192;15.670;2022-12-10T06:25:37;14.75;;;8.73;;
21941;SDS011;11135;54.192;15.670;2022-12-10T06:28:46;15.50;;;7.57;;
21941;SDS011;11135;54.192;15.670;2022-12-10T06:31:52;14.43;;;7.78;;
21941;SDS011;11135;54.192;15.670;2022-12-10T06:35:00;15.65;;;7.88;;
21941;SDS011;11135;54.192;15.670;2022-12-10T06:38:08;15.00;;;7.50;;
21941;SDS011;11135;54.192;15.670;2022-12-10T06:41:19;11.88;;;7.50;;
21941;SDS011;11135;54.192;15.670;2022-12-10T06:44:28;16.05;;;8.55;;
21941;SDS011;11135;54.192;15.670;2022-12-10T06:47:36;16.20;;;7.85;;
21941;SDS011;11135;54.192;15.670;2022-12-10T06:50:45;14.52;;;8.23;;
21941;SDS011;11135;54.192;15.670;2022-12-10T06:53:51;15.07;;;8.68;;
21941;SDS011;11135;54.192;15.670;2022-12-10T06:56:56;13.98;;;7.80;;
21941;SDS011;11135;54.192;15.670;2022-12-10T07:00:07;19.08;;;8.80;;
21941;SDS011;11135;54.192;15.670;2022-12-10T07:03:12;14.68;;;8.00;;
21941;SDS011;11135;54.192;15.670;2022-12-10T07:06:18;13.57;;;8.13;;
21941;SDS011;11135;54.192;15.670;2022-12-10T07:09:26;13.35;;;8.57;;
21941;SDS011;11135;54.192;15.670;2022-12-10T07:12:32;13.98;;;7.72;;
21941;SDS011;11135;54.192;15.670;2022-12-10T07:15:41;11.52;;;6.80;;
21941;SDS011;11135;54.192;15.670;2022-12-10T07:18:49;13.57;;;7.28;;
21941;SDS011;11135;54.192;15.670;2022-12-10T07:21:56;11.30;;;7.03;;
21941;SDS011;11135;54.192;15.670;2022-12-10T07:25:01;15.05;;;8.10;;
21941;SDS011;11135;54.192;15.670;2022-12-10T07:28:06;13.23;;;6.97;;
21941;SDS011;11135;54.192;15.670;2022-12-10T07:31:15;14.45;;;8.05;;
21941;SDS011;11135;54.192;15.670;2022-12-10T07:34:23;19.10;;;10.23;;
21941;SDS011;11135;54.192;15.670;2022-12-10T07:37:29;12.13;;;7.40;;
21941;SDS011;11135;54.192;15.670;2022-12-10T07:40:35;12.65;;;7.20;;
21941;SDS011;11135;54.192;15.670;2022-12-10T07:43:41;11.55;;;6.82;;
21941;SDS011;11135;54.192;15.670;2022-12-10T07:46:52;10.77;;;6.20;;
21941;SDS011;11135;54.192;15.670;2022-12-10T07:49:58;12.70;;;7.47;;
21941;SDS011;11135;54.192;15.670;2022-12-10T07:53:06;13.50;;;7.63;;
21941;SDS011;11135;54.192;15.670;2022-12-10T07:56:14;14.20;;;7.47;;
21941;SDS011;11135;54.192;15.670;2022-12-10T07:59:22;16.02;;;7.53;;
21941;SDS011;11135;54.192;15.670;2022-12-10T08:02:32;13.10;;;7.45;;
21941;SDS011;11135;54.192;15.670;2022-12-10T08:05:38;10.30;;;5.35;;
21941;SDS011;11135;54.192;15.670;2022-12-10T08:08:44;11.90;;;6.35;;
21941;SDS011;11135;54.192;15.670;2022-12-10T08:11:50;16.58;;;8.65;;
21941;SDS011;11135;54.192;15.670;2022-12-10T08:14:56;14.05;;;7.63;;
21941;SDS011;11135;54.192;15.670;2022-12-10T08:18:07;12.82;;;6.70;;
21941;SDS011;11135;54.192;15.670;2022-12-10T08:21:17;13.40;;;6.23;;
21941;SDS011;11135;54.192;15.670;2022-12-10T08:24:23;14.30;;;7.28;;
21941;SDS011;11135;54.192;15.670;2022-12-10T08:27:28;9.20;;;4.60;;
21941;SDS011;11135;54.192;15.670;2022-12-10T08:30:34;10.40;;;6.40;;
21941;SDS011;11135;54.192;15.670;2022-12-10T08:33:48;15.55;;;6.97;;
21941;SDS011;11135;54.192;15.670;2022-12-10T08:36:55;15.93;;;7.75;;
21941;SDS011;11135;54.192;15.670;2022-12-10T08:40:02;14.98;;;7.45;;
21941;SDS011;11135;54.192;15.670;2022-12-10T08:43:11;12.73;;;7.50;;
21941;SDS011;11135;54.192;15.670;2022-12-10T08:46:18;9.40;;;4.18;;
21941;SDS011;11135;54.192;15.670;2022-12-10T08:49:29;14.05;;;8.43;;
21941;SDS011;11135;54.192;15.670;2022-12-10T08:52:39;13.75;;;7.18;;
21941;SDS011;11135;54.192;15.670;2022-12-10T08:55:50;12.60;;;8.15;;
21941;SDS011;11135;54.192;15.670;2022-12-10T08:58:56;14.27;;;8.45;;
21941;SDS011;11135;54.192;15.670;2022-12-10T09:02:02;13.73;;;6.63;;
21941;SDS011;11135;54.192;15.670;2022-12-10T09:05:13;16.30;;;9.18;;
21941;SDS011;11135;54.192;15.670;2022-12-10T09:08:19;12.45;;;6.53;;
21941;SDS011;11135;54.192;15.670;2022-12-10T09:11:27;13.25;;;8.20;;
21941;SDS011;11135;54.192;15.670;2022-12-10T09:14:32;14.18;;;7.72;;
21941;SDS011;11135;54.192;15.670;2022-12-10T09:17:42;16.23;;;8.43;;
21941;SDS011;11135;54.192;15.670;2022-12-10T09:20:51;16.52;;;9.93;;
21941;SDS011;11135;54.192;15.670;2022-12-10T09:23:58;18.55;;;8.93;;
21941;SDS011;11135;54.192;15.670;2022-12-10T09:27:06;15.98;;;8.65;;
21941;SDS011;11135;54.192;15.670;2022-12-10T09:30:12;16.92;;;9.43;;
21941;SDS011;11135;54.192;15.670;2022-12-10T09:33:19;18.13;;;6.82;;
21941;SDS011;11135;54.192;15.670;2022-12-10T09:36:27;14.35;;;8.85;;
21941;SDS011;11135;54.192;15.670;2022-12-10T09:39:34;12.10;;;7.75;;
21941;SDS011;11135;54.192;15.670;2022-12-10T09:42:43;15.35;;;7.95;;
21941;SDS011;11135;54.192;15.670;2022-12-10T09:45:58;12.73;;;6.93;;
21941;SDS011;11135;54.192;15.670;2022-12-10T09:52:14;12.90;;;7.13;;
21941;SDS011;11135;54.192;15.670;2022-12-10T09:55:22;15.48;;;7.60;;
21941;SDS011;11135;54.192;15.670;2022-12-10T09:58:33;10.77;;;6.78;;
21941;SDS011;11135;54.192;15.670;2022-12-10T10:01:44;14.82;;;7.53;;
21941;SDS011;11135;54.192;15.670;2022-12-10T10:04:51;11.73;;;5.88;;
21941;SDS011;11135;54.192;15.670;2022-12-10T10:08:03;14.57;;;8.30;;
21941;SDS011;11135;54.192;15.670;2022-12-10T10:11:16;13.43;;;7.72;;
21941;SDS011;11135;54.192;15.670;2022-12-10T10:14:25;14.05;;;7.82;;
21941;SDS011;11135;54.192;15.670;2022-12-10T10:17:33;15.00;;;8.38;;
21941;SDS011;11135;54.192;15.670;2022-12-10T10:20:41;11.43;;;7.40;;
21941;SDS011;11135;54.192;15.670;2022-12-10T10:23:51;14.32;;;8.32;;
21941;SDS011;11135;54.192;15.670;2022-12-10T10:26:58;13.80;;;7.63;;
21941;SDS011;11135;54.192;15.670;2022-12-10T10:30:15;13.98;;;8.45;;
21941;SDS011;11135;54.192;15.670;2022-12-10T10:33:24;12.13;;;8.13;;
21941;SDS011;11135;54.192;15.670;2022-12-10T10:36:30;12.57;;;7.22;;
21941;SDS011;11135;54.192;15.670;2022-12-10T10:39:49;15.27;;;8.63;;
21941;SDS011;11135;54.192;15.670;2022-12-10T10:44:33;15.50;;;10.52;;
21941;SDS011;11135;54.192;15.670;2022-12-10T10:47:41;15.85;;;9.57;;
21941;SDS011;11135;54.192;15.670;2022-12-10T10:50:53;18.02;;;9.60;;
21941;SDS011;11135;54.192;15.670;2022-12-10T10:53:59;14.60;;;9.15;;
21941;SDS011;11135;54.192;15.670;2022-12-10T10:57:10;15.80;;;9.43;;
21941;SDS011;11135;54.192;15.670;2022-12-10T11:00:21;14.35;;;9.93;;
21941;SDS011;11135;54.192;15.670;2022-12-10T11:03:32;16.45;;;8.65;;
21941;SDS011;11135;54.192;15.670;2022-12-10T11:06:39;14.38;;;8.35;;
21941;SDS011;11135;54.192;15.670;2022-12-10T11:09:46;12.80;;;8.15;;
21941;SDS011;11135;54.192;15.670;2022-12-10T11:12:55;13.05;;;8.35;;
21941;SDS011;11135;54.192;15.670;2022-12-10T11:16:17;16.10;;;10.15;;
21941;SDS011;11135;54.192;15.670;2022-12-10T11:19:24;15.00;;;9.68;;
21941;SDS011;11135;54.192;15.670;2022-12-10T11:22:30;13.73;;;8.07;;
21941;SDS011;11135;54.192;15.670;2022-12-10T11:25:39;13.65;;;8.63;;
21941;SDS011;11135;54.192;15.670;2022-12-10T11:28:53;14.32;;;8.75;;
21941;SDS011;11135;54.192;15.670;2022-12-10T11:32:07;13.93;;;8.60;;
21941;SDS011;11135;54.192;15.670;2022-12-10T11:35:17;14.27;;;7.95;;
21941;SDS011;11135;54.192;15.670;2022-12-10T11:38:34;13.23;;;8.38;;
21941;SDS011;11135;54.192;15.670;2022-12-10T11:41:44;14.40;;;8.63;;
21941;SDS011;11135;54.192;15.670;2022-12-10T11:44:54;14.38;;;8.57;;
21941;SDS011;11135;54.192;15.670;2022-12-10T11:48:13;14.02;;;9.20;;
21941;SDS011;11135;54.192;15.670;2022-12-10T11:51:40;15.38;;;8.48;;
21941;SDS011;11135;54.192;15.670;2022-12-10T11:54:53;12.93;;;8.50;;
21941;SDS011;11135;54.192;15.670;2022-12-10T11:58:14;16.67;;;9.63;;
21941;SDS011;11135;54.192;15.670;2022-12-10T12:01:31;14.30;;;8.90;;
21941;SDS011;11135;54.192;15.670;2022-12-10T12:04:49;15.13;;;8.90;;
21941;SDS011;11135;54.192;15.670;2022-12-10T12:07:59;13.55;;;7.90;;
21941;SDS011;11135;54.192;15.670;2022-12-10T12:11:13;12.30;;;6.90;;
21941;SDS011;11135;54.192;15.670;2022-12-10T12:14:23;11.13;;;7.78;;
21941;SDS011;11135;54.192;15.670;2022-12-10T12:17:35;14.68;;;8.05;;
21941;SDS011;11135;54.192;15.670;2022-12-10T12:20:51;10.88;;;7.07;;
21941;SDS011;11135;54.192;15.670;2022-12-10T12:24:01;12.93;;;7.80;;
21941;SDS011;11135;54.192;15.670;2022-12-10T12:27:11;13.02;;;7.07;;
21941;SDS011;11135;54.192;15.670;2022-12-10T12:30:19;13.93;;;8.15;;
21941;SDS011;11135;54.192;15.670;2022-12-10T12:33:29;14.20;;;8.32;;
21941;SDS011;11135;54.192;15.670;2022-12-10T12:36:38;15.00;;;7.97;;
21941;SDS011;11135;54.192;15.670;2022-12-10T12:39:45;13.73;;;8.18;;
21941;SDS011;11135;54.192;15.670;2022-12-10T12:42:58;15.07;;;8.30;;
21941;SDS011;11135;54.192;15.670;2022-12-10T12:46:11;12.93;;;7.72;;
21941;SDS011;11135;54.192;15.670;2022-12-10T12:49:20;15.70;;;8.25;;
21941;SDS011;11135;54.192;15.670;2022-12-10T12:52:30;14.57;;;8.13;;
21941;SDS011;11135;54.192;15.670;2022-12-10T12:55:48;17.13;;;8.65;;
21941;SDS011;11135;54.192;15.670;2022-12-10T12:59:00;16.05;;;9.98;;
21941;SDS011;11135;54.192;15.670;2022-12-10T13:02:15;15.40;;;8.65;;
21941;SDS011;11135;54.192;15.670;2022-12-10T13:05:24;14.60;;;8.82;;
21941;SDS011;11135;54.192;15.670;2022-12-10T13:08:35;17.52;;;9.60;;
21941;SDS011;11135;54.192;15.670;2022-12-10T13:11:46;17.55;;;9.38;;
21941;SDS011;11135;54.192;15.670;2022-12-10T13:15:17;16.05;;;9.30;;
21941;SDS011;11135;54.192;15.670;2022-12-10T13:18:34;16.08;;;9.82;;
21941;SDS011;11135;54.192;15.670;2022-12-10T13:21:56;17.30;;;9.60;;
21941;SDS011;11135;54.192;15.670;2022-12-10T13:25:22;19.15;;;10.45;;
21941;SDS011;11135;54.192;15.670;2022-12-10T13:28:48;17.42;;;9.68;;
21941;SDS011;11135;54.192;15.670;2022-12-10T13:31:55;15.52;;;9.55;;
21941;SDS011;11135;54.192;15.670;2022-12-10T13:38:28;16.83;;;9.60;;
21941;SDS011;11135;54.192;15.670;2022-12-10T13:41:42;16.25;;;9.70;;
21941;SDS011;11135;54.192;15.670;2022-12-10T13:45:32;14.80;;;9.23;;
21941;SDS011;11135;54.192;15.670;2022-12-10T13:48:41;14.27;;;9.57;;
21941;SDS011;11135;54.192;15.670;2022-12-10T13:51:57;19.73;;;10.15;;
21941;SDS011;11135;54.192;15.670;2022-12-10T13:55:08;17.58;;;10.85;;
21941;SDS011;11135;54.192;15.670;2022-12-10T13:58:30;17.38;;;10.35;;
21941;SDS011;11135;54.192;15.670;2022-12-10T14:01:47;16.60;;;9.68;;
21941;SDS011;11135;54.192;15.670;2022-12-10T14:05:11;17.58;;;9.98;;
21941;SDS011;11135;54.192;15.670;2022-12-10T14:08:22;20.17;;;11.25;;
21941;SDS011;11135;54.192;15.670;2022-12-10T14:11:32;22.15;;;11.52;;
21941;SDS011;11135;54.192;15.670;2022-12-10T14:14:44;19.15;;;10.93;;
21941;SDS011;11135;54.192;15.670;2022-12-10T14:17:56;20.23;;;12.20;;
21941;SDS011;11135;54.192;15.670;2022-12-10T14:21:05;21.42;;;11.57;;
21941;SDS011;11135;54.192;15.670;2022-12-10T14:24:25;18.90;;;11.32;;
21941;SDS011;11135;54.192;15.670;2022-12-10T14:27:33;18.67;;;10.03;;
21941;SDS011;11135;54.192;15.670;2022-12-10T14:30:45;20.70;;;11.95;;
21941;SDS011;11135;54.192;15.670;2022-12-10T14:33:56;18.95;;;10.32;;
21941;SDS011;11135;54.192;15.670;2022-12-10T14:37:03;18.05;;;11.05;;
21941;SDS011;11135;54.192;15.670;2022-12-10T14:40:17;23.60;;;12.40;;
21941;SDS011;11135;54.192;15.670;2022-12-10T14:43:32;21.70;;;11.82;;
21941;SDS011;11135;54.192;15.670;2022-12-10T14:46:43;20.83;;;12.15;;
21941;SDS011;11135;54.192;15.670;2022-12-10T14:50:00;21.13;;;11.20;;
21941;SDS011;11135;54.192;15.670;2022-12-10T14:53:13;20.25;;;11.35;;
21941;SDS011;11135;54.192;15.670;2022-12-10T14:56:26;20.27;;;11.73;;
21941;SDS011;11135;54.192;15.670;2022-12-10T14:59:35;17.55;;;10.45;;
21941;SDS011;11135;54.192;15.670;2022-12-10T15:02:50;19.42;;;12.18;;
21941;SDS011;11135;54.192;15.670;2022-12-10T15:05:58;19.05;;;10.85;;
21941;SDS011;11135;54.192;15.670;2022-12-10T15:09:06;19.13;;;10.98;;
21941;SDS011;11135;54.192;15.670;2022-12-10T15:12:23;18.90;;;11.10;;
21941;SDS011;11135;54.192;15.670;2022-12-10T15:15:58;19.50;;;11.52;;
21941;SDS011;11135;54.192;15.670;2022-12-10T15:19:20;20.00;;;12.00;;
21941;SDS011;11135;54.192;15.670;2022-12-10T15:22:26;22.17;;;12.10;;
21941;SDS011;11135;54.192;15.670;2022-12-10T15:25:42;20.23;;;11.82;;
21941;SDS011;11135;54.192;15.670;2022-12-10T15:28:49;22.23;;;13.23;;
21941;SDS011;11135;54.192;15.670;2022-12-10T15:31:58;19.20;;;10.73;;
21941;SDS011;11135;54.192;15.670;2022-12-10T15:35:13;21.92;;;12.60;;
21941;SDS011;11135;54.192;15.670;2022-12-10T15:38:22;19.35;;;11.50;;
21941;SDS011;11135;54.192;15.670;2022-12-10T15:41:40;19.42;;;10.85;;
21941;SDS011;11135;54.192;15.670;2022-12-10T15:44:48;18.40;;;10.27;;
21941;SDS011;11135;54.192;15.670;2022-12-10T15:47:54;18.10;;;10.55;;
21941;SDS011;11135;54.192;15.670;2022-12-10T15:51:09;17.52;;;10.93;;
21941;SDS011;11135;54.192;15.670;2022-12-10T15:54:27;18.40;;;11.23;;
21941;SDS011;11135;54.192;15.670;2022-12-10T15:57:49;20.75;;;11.85;;
21941;SDS011;11135;54.192;15.670;2022-12-10T16:01:04;20.20;;;11.05;;
21941;SDS011;11135;54.192;15.670;2022-12-10T16:04:12;22.38;;;12.85;;
21941;SDS011;11135;54.192;15.670;2022-12-10T16:07:21;19.48;;;11.88;;
21941;SDS011;11135;54.192;15.670;2022-12-10T16:10:29;20.05;;;11.57;;
21941;SDS011;11135;54.192;15.670;2022-12-10T16:13:37;19.85;;;11.82;;
21941;SDS011;11135;54.192;15.670;2022-12-10T16:16:45;21.02;;;11.35;;
21941;SDS011;11135;54.192;15.670;2022-12-10T16:19:51;22.92;;;11.98;;
21941;SDS011;11135;54.192;15.670;2022-12-10T16:23:03;20.90;;;11.85;;
21941;SDS011;11135;54.192;15.670;2022-12-10T16:26:14;20.65;;;11.82;;
21941;SDS011;11135;54.192;15.670;2022-12-10T16:29:22;19.77;;;11.55;;
21941;SDS011;11135;54.192;15.670;2022-12-10T16:32:29;18.48;;;11.60;;
21941;SDS011;11135;54.192;15.670;2022-12-10T16:35:38;22.33;;;12.35;;
21941;SDS011;11135;54.192;15.670;2022-12-10T16:38:51;20.77;;;12.48;;
21941;SDS011;11135;54.192;15.670;2022-12-10T16:42:07;17.95;;;11.13;;
21941;SDS011;11135;54.192;15.670;2022-12-10T16:45:19;20.65;;;12.00;;
21941;SDS011;11135;54.192;15.670;2022-12-10T16:48:26;22.65;;;12.40;;
21941;SDS011;11135;54.192;15.670;2022-12-10T16:51:31;21.67;;;12.20;;
21941;SDS011;11135;54.192;15.670;2022-12-10T16:54:40;21.27;;;12.25;;
21941;SDS011;11135;54.192;15.670;2022-12-10T16:57:47;20.27;;;11.70;;
21941;SDS011;11135;54.192;15.670;2022-12-10T17:00:56;19.95;;;11.23;;
21941;SDS011;11135;54.192;15.670;2022-12-10T17:04:03;23.10;;;12.95;;
21941;SDS011;11135;54.192;15.670;2022-12-10T17:07:10;22.77;;;12.15;;
21941;SDS011;11135;54.192;15.670;2022-12-10T17:10:18;18.40;;;11.48;;
21941;SDS011;11135;54.192;15.670;2022-12-10T17:13:43;19.48;;;11.90;;
21941;SDS011;11135;54.192;15.670;2022-12-10T17:16:50;20.27;;;12.25;;
21941;SDS011;11135;54.192;15.670;2022-12-10T17:19:56;21.70;;;11.30;;
21941;SDS011;11135;54.192;15.670;2022-12-10T17:23:05;19.88;;;12.18;;
21941;SDS011;11135;54.192;15.670;2022-12-10T17:26:15;25.15;;;13.00;;
21941;SDS011;11135;54.192;15.670;2022-12-10T17:29:25;23.42;;;12.38;;
21941;SDS011;11135;54.192;15.670;2022-12-10T17:32:32;21.27;;;12.63;;
21941;SDS011;11135;54.192;15.670;2022-12-10T17:35:40;22.33;;;12.38;;
21941;SDS011;11135;54.192;15.670;2022-12-10T17:38:49;22.83;;;12.80;;
21941;SDS011;11135;54.192;15.670;2022-12-10T17:41:57;23.35;;;12.65;;
21941;SDS011;11135;54.192;15.670;2022-12-10T17:45:03;20.42;;;12.20;;
21941;SDS011;11135;54.192;15.670;2022-12-10T17:48:15;19.77;;;11.73;;
21941;SDS011;11135;54.192;15.670;2022-12-10T17:51:21;19.73;;;12.20;;
21941;SDS011;11135;54.192;15.670;2022-12-10T17:54:27;20.80;;;11.40;;
21941;SDS011;11135;54.192;15.670;2022-12-10T17:57:35;21.58;;;12.15;;
21941;SDS011;11135;54.192;15.670;2022-12-10T18:00:43;21.38;;;12.43;;
21941;SDS011;11135;54.192;15.670;2022-12-10T18:03:49;22.60;;;11.73;;
21941;SDS011;11135;54.192;15.670;2022-12-10T18:07:01;19.58;;;10.30;;
21941;SDS011;11135;54.192;15.670;2022-12-10T18:10:14;16.88;;;9.20;;
21941;SDS011;11135;54.192;15.670;2022-12-10T18:13:22;16.02;;;8.10;;
21941;SDS011;11135;54.192;15.670;2022-12-10T18:16:28;19.48;;;10.93;;
21941;SDS011;11135;54.192;15.670;2022-12-10T18:19:35;21.05;;;11.75;;
21941;SDS011;11135;54.192;15.670;2022-12-10T18:22:45;21.23;;;11.63;;
21941;SDS011;11135;54.192;15.670;2022-12-10T18:25:50;21.30;;;11.88;;
21941;SDS011;11135;54.192;15.670;2022-12-10T18:28:59;18.08;;;11.05;;
21941;SDS011;11135;54.192;15.670;2022-12-10T18:32:05;23.08;;;11.75;;
21941;SDS011;11135;54.192;15.670;2022-12-10T18:35:10;17.92;;;11.38;;
21941;SDS011;11135;54.192;15.670;2022-12-10T18:38:20;16.83;;;10.82;;
21941;SDS011;11135;54.192;15.670;2022-12-10T18:41:27;18.52;;;11.05;;